sensor_id;sensor_type;location;lat;lon;timestamp;P1;durP1;ratioP1;P2;durP2;ratioP2
313;SDS011;143;51.634;7.112;2023-06-22T00:00:54;12.50;;;6.40;;
313;SDS011;143;51.634;7.112;2023-06-22T00:03:21;10.30;;;6.10;;
313;SDS011;143;51.634;7.112;2023-06-22T00:05:49;9.00;;;6.57;;
313;SDS011;143;51.634;7.112;2023-06-22T00:08:15;7.70;;;5.43;;
313;SDS011;143;51.634;7.112;2023-06-22T00:10:41;9.17;;;5.83;;
313;SDS011;143;51.634;7.112;2023-06-22T00:13:08;9.50;;;6.23;;
313;SDS011;143;51.634;7.112;2023-06-22T00:15:34;13.00;;;6.90;;
313;SDS011;143;51.634;7.112;2023-06-22T00:18:01;10.07;;;7.10;;
313;SDS011;143;51.634;7.112;2023-06-22T00:20:27;9.00;;;5.30;;
313;SDS011;143;51.634;7.112;2023-06-22T00:22:56;7.07;;;5.27;;
313;SDS011;143;51.634;7.112;2023-06-22T00:25:23;11.97;;;6.20;;
313;SDS011;143;51.634;7.112;2023-06-22T00:27:49;14.63;;;6.23;;
313;SDS011;143;51.634;7.112;2023-06-22T00:30:15;14.77;;;7.60;;
313;SDS011;143;51.634;7.112;2023-06-22T00:32:42;12.53;;;6.50;;
313;SDS011;143;51.634;7.112;2023-06-22T00:35:08;11.20;;;6.27;;
313;SDS011;143;51.634;7.112;2023-06-22T00:37:35;10.43;;;6.50;;
313;SDS011;143;51.634;7.112;2023-06-22T00:40:07;16.97;;;7.20;;
313;SDS011;143;51.634;7.112;2023-06-22T00:42:40;13.47;;;7.20;;
313;SDS011;143;51.634;7.112;2023-06-22T00:45:06;15.30;;;6.87;;
313;SDS011;143;51.634;7.112;2023-06-22T00:47:33;10.20;;;6.67;;
313;SDS011;143;51.634;7.112;2023-06-22T00:50:00;12.07;;;7.27;;
313;SDS011;143;51.634;7.112;2023-06-22T00:52:27;10.37;;;6.90;;
313;SDS011;143;51.634;7.112;2023-06-22T00:54:56;11.63;;;7.10;;
313;SDS011;143;51.634;7.112;2023-06-22T00:57:23;8.40;;;6.33;;
313;SDS011;143;51.634;7.112;2023-06-22T00:59:53;8.93;;;6.90;;
313;SDS011;143;51.634;7.112;2023-06-22T01:02:19;10.97;;;6.43;;
313;SDS011;143;51.634;7.112;2023-06-22T01:04:45;16.57;;;8.60;;
313;SDS011;143;51.634;7.112;2023-06-22T01:07:21;10.83;;;7.10;;
313;SDS011;143;51.634;7.112;2023-06-22T01:10:06;12.67;;;6.30;;
313;SDS011;143;51.634;7.112;2023-06-22T01:12:58;10.50;;;6.40;;
313;SDS011;143;51.634;7.112;2023-06-22T01:18:29;10.90;;;7.30;;
313;SDS011;143;51.634;7.112;2023-06-22T01:20:56;11.10;;;7.60;;
313;SDS011;143;51.634;7.112;2023-06-22T01:26:08;15.47;;;8.30;;
313;SDS011;143;51.634;7.112;2023-06-22T01:28:50;15.83;;;7.97;;
313;SDS011;143;51.634;7.112;2023-06-22T01:31:20;12.77;;;8.43;;
313;SDS011;143;51.634;7.112;2023-06-22T01:33:52;11.63;;;7.40;;
313;SDS011;143;51.634;7.112;2023-06-22T01:36:21;13.47;;;7.70;;
313;SDS011;143;51.634;7.112;2023-06-22T01:38:48;12.83;;;9.47;;
313;SDS011;143;51.634;7.112;2023-06-22T01:41:15;12.00;;;7.50;;
313;SDS011;143;51.634;7.112;2023-06-22T01:43:42;15.27;;;7.50;;
313;SDS011;143;51.634;7.112;2023-06-22T01:46:08;13.37;;;7.90;;
313;SDS011;143;51.634;7.112;2023-06-22T01:48:35;13.30;;;8.80;;
313;SDS011;143;51.634;7.112;2023-06-22T01:51:01;14.63;;;9.73;;
313;SDS011;143;51.634;7.112;2023-06-22T01:53:28;10.67;;;7.90;;
313;SDS011;143;51.634;7.112;2023-06-22T01:55:53;11.63;;;8.50;;
313;SDS011;143;51.634;7.112;2023-06-22T01:58:20;11.40;;;8.10;;
313;SDS011;143;51.634;7.112;2023-06-22T02:00:49;11.33;;;8.77;;
313;SDS011;143;51.634;7.112;2023-06-22T02:03:30;12.43;;;8.37;;
313;SDS011;143;51.634;7.112;2023-06-22T02:06:10;12.13;;;8.20;;
313;SDS011;143;51.634;7.112;2023-06-22T02:08:44;18.13;;;9.40;;
313;SDS011;143;51.634;7.112;2023-06-22T02:11:13;17.97;;;9.63;;
313;SDS011;143;51.634;7.112;2023-06-22T02:13:41;18.40;;;9.20;;
313;SDS011;143;51.634;7.112;2023-06-22T02:16:11;17.17;;;9.70;;
313;SDS011;143;51.634;7.112;2023-06-22T02:18:38;13.77;;;9.37;;
313;SDS011;143;51.634;7.112;2023-06-22T02:21:05;13.73;;;9.50;;
313;SDS011;143;51.634;7.112;2023-06-22T02:23:31;10.97;;;8.53;;
313;SDS011;143;51.634;7.112;2023-06-22T02:25:59;15.23;;;8.10;;
313;SDS011;143;51.634;7.112;2023-06-22T02:28:27;14.17;;;9.33;;
313;SDS011;143;51.634;7.112;2023-06-22T02:30:53;14.80;;;9.77;;
313;SDS011;143;51.634;7.112;2023-06-22T02:33:18;12.20;;;9.40;;
313;SDS011;143;51.634;7.112;2023-06-22T02:35:44;13.97;;;9.90;;
313;SDS011;143;51.634;7.112;2023-06-22T02:38:13;14.30;;;10.00;;
313;SDS011;143;51.634;7.112;2023-06-22T02:40:39;14.83;;;11.00;;
313;SDS011;143;51.634;7.112;2023-06-22T02:43:05;11.97;;;8.90;;
313;SDS011;143;51.634;7.112;2023-06-22T02:45:31;13.40;;;9.23;;
313;SDS011;143;51.634;7.112;2023-06-22T02:47:57;13.30;;;9.43;;
313;SDS011;143;51.634;7.112;2023-06-22T02:50:23;18.87;;;9.67;;
313;SDS011;143;51.634;7.112;2023-06-22T02:52:49;16.43;;;10.20;;
313;SDS011;143;51.634;7.112;2023-06-22T02:55:14;15.87;;;9.63;;
313;SDS011;143;51.634;7.112;2023-06-22T02:57:40;16.73;;;10.47;;
313;SDS011;143;51.634;7.112;2023-06-22T03:00:10;13.90;;;9.00;;
313;SDS011;143;51.634;7.112;2023-06-22T03:02:45;16.80;;;10.67;;
313;SDS011;143;51.634;7.112;2023-06-22T03:05:12;17.43;;;10.40;;
313;SDS011;143;51.634;7.112;2023-06-22T03:07:41;14.07;;;9.47;;
313;SDS011;143;51.634;7.112;2023-06-22T03:10:10;14.57;;;9.60;;
313;SDS011;143;51.634;7.112;2023-06-22T03:12:38;17.03;;;9.83;;
313;SDS011;143;51.634;7.112;2023-06-22T03:15:08;14.67;;;10.70;;
313;SDS011;143;51.634;7.112;2023-06-22T03:17:35;14.83;;;9.77;;
313;SDS011;143;51.634;7.112;2023-06-22T03:20:01;24.43;;;11.60;;
313;SDS011;143;51.634;7.112;2023-06-22T03:22:34;14.70;;;9.50;;
313;SDS011;143;51.634;7.112;2023-06-22T03:25:01;14.07;;;9.80;;
313;SDS011;143;51.634;7.112;2023-06-22T03:27:27;11.80;;;9.00;;
313;SDS011;143;51.634;7.112;2023-06-22T03:29:52;17.57;;;11.03;;
313;SDS011;143;51.634;7.112;2023-06-22T03:32:18;15.10;;;10.97;;
313;SDS011;143;51.634;7.112;2023-06-22T03:34:44;13.80;;;10.30;;
313;SDS011;143;51.634;7.112;2023-06-22T03:37:13;15.80;;;10.00;;
313;SDS011;143;51.634;7.112;2023-06-22T03:39:39;18.60;;;10.57;;
313;SDS011;143;51.634;7.112;2023-06-22T03:42:06;17.97;;;10.73;;
313;SDS011;143;51.634;7.112;2023-06-22T03:44:31;12.60;;;10.20;;
313;SDS011;143;51.634;7.112;2023-06-22T03:46:57;20.90;;;10.80;;
313;SDS011;143;51.634;7.112;2023-06-22T03:49:23;16.87;;;12.40;;
313;SDS011;143;51.634;7.112;2023-06-22T03:51:48;18.40;;;11.00;;
313;SDS011;143;51.634;7.112;2023-06-22T03:54:14;17.50;;;10.70;;
313;SDS011;143;51.634;7.112;2023-06-22T03:56:40;14.20;;;10.70;;
313;SDS011;143;51.634;7.112;2023-06-22T03:59:05;18.43;;;11.47;;
313;SDS011;143;51.634;7.112;2023-06-22T04:01:31;16.30;;;10.20;;
313;SDS011;143;51.634;7.112;2023-06-22T04:03:57;18.60;;;12.33;;
313;SDS011;143;51.634;7.112;2023-06-22T04:06:22;16.10;;;11.27;;
313;SDS011;143;51.634;7.112;2023-06-22T04:08:48;16.63;;;9.83;;
313;SDS011;143;51.634;7.112;2023-06-22T04:11:16;15.03;;;10.60;;
313;SDS011;143;51.634;7.112;2023-06-22T04:13:43;18.70;;;11.53;;
313;SDS011;143;51.634;7.112;2023-06-22T04:16:09;15.43;;;10.90;;
313;SDS011;143;51.634;7.112;2023-06-22T04:18:35;17.87;;;12.33;;
313;SDS011;143;51.634;7.112;2023-06-22T04:21:01;22.10;;;12.77;;
313;SDS011;143;51.634;7.112;2023-06-22T04:23:27;24.77;;;13.67;;
313;SDS011;143;51.634;7.112;2023-06-22T04:25:53;20.37;;;13.03;;
313;SDS011;143;51.634;7.112;2023-06-22T04:28:21;17.90;;;12.03;;
313;SDS011;143;51.634;7.112;2023-06-22T04:30:47;15.63;;;11.60;;
313;SDS011;143;51.634;7.112;2023-06-22T04:33:16;18.87;;;11.20;;
313;SDS011;143;51.634;7.112;2023-06-22T04:35:44;17.93;;;11.50;;
313;SDS011;143;51.634;7.112;2023-06-22T04:38:11;18.50;;;12.20;;
313;SDS011;143;51.634;7.112;2023-06-22T04:40:38;18.03;;;12.63;;
313;SDS011;143;51.634;7.112;2023-06-22T04:43:04;15.43;;;12.00;;
313;SDS011;143;51.634;7.112;2023-06-22T04:45:31;14.80;;;11.13;;
313;SDS011;143;51.634;7.112;2023-06-22T04:47:58;21.50;;;12.60;;
313;SDS011;143;51.634;7.112;2023-06-22T04:50:25;16.13;;;12.23;;
313;SDS011;143;51.634;7.112;2023-06-22T04:52:51;24.87;;;14.80;;
313;SDS011;143;51.634;7.112;2023-06-22T04:55:17;16.87;;;12.10;;
313;SDS011;143;51.634;7.112;2023-06-22T04:57:48;18.33;;;12.93;;
313;SDS011;143;51.634;7.112;2023-06-22T05:00:22;15.73;;;12.30;;
313;SDS011;143;51.634;7.112;2023-06-22T05:02:48;17.93;;;13.77;;
313;SDS011;143;51.634;7.112;2023-06-22T05:05:14;22.47;;;15.03;;
313;SDS011;143;51.634;7.112;2023-06-22T05:07:44;18.23;;;13.00;;
313;SDS011;143;51.634;7.112;2023-06-22T05:10:17;19.27;;;13.00;;
313;SDS011;143;51.634;7.112;2023-06-22T05:12:44;18.93;;;13.13;;
313;SDS011;143;51.634;7.112;2023-06-22T05:15:10;20.40;;;14.90;;
313;SDS011;143;51.634;7.112;2023-06-22T05:17:37;22.57;;;14.83;;
313;SDS011;143;51.634;7.112;2023-06-22T05:20:08;22.27;;;15.10;;
313;SDS011;143;51.634;7.112;2023-06-22T05:22:35;18.80;;;14.27;;
313;SDS011;143;51.634;7.112;2023-06-22T05:25:01;21.10;;;14.90;;
313;SDS011;143;51.634;7.112;2023-06-22T05:27:26;19.00;;;13.03;;
313;SDS011;143;51.634;7.112;2023-06-22T05:29:52;20.93;;;12.43;;
313;SDS011;143;51.634;7.112;2023-06-22T05:32:18;20.87;;;13.60;;
313;SDS011;143;51.634;7.112;2023-06-22T05:34:44;17.00;;;12.50;;
313;SDS011;143;51.634;7.112;2023-06-22T05:37:09;23.00;;;13.77;;
313;SDS011;143;51.634;7.112;2023-06-22T05:39:35;22.80;;;15.70;;
313;SDS011;143;51.634;7.112;2023-06-22T05:42:04;17.93;;;13.23;;
313;SDS011;143;51.634;7.112;2023-06-22T05:44:30;20.77;;;12.03;;
313;SDS011;143;51.634;7.112;2023-06-22T05:46:56;17.00;;;12.67;;
313;SDS011;143;51.634;7.112;2023-06-22T05:49:22;18.77;;;13.30;;
313;SDS011;143;51.634;7.112;2023-06-22T05:51:49;23.87;;;15.13;;
313;SDS011;143;51.634;7.112;2023-06-22T05:54:14;17.67;;;13.33;;
313;SDS011;143;51.634;7.112;2023-06-22T05:56:42;21.27;;;13.63;;
313;SDS011;143;51.634;7.112;2023-06-22T05:59:08;19.03;;;13.33;;
313;SDS011;143;51.634;7.112;2023-06-22T06:01:34;25.97;;;15.07;;
313;SDS011;143;51.634;7.112;2023-06-22T06:04:01;21.33;;;13.57;;
313;SDS011;143;51.634;7.112;2023-06-22T06:06:29;28.33;;;15.03;;
313;SDS011;143;51.634;7.112;2023-06-22T06:08:55;19.63;;;15.33;;
313;SDS011;143;51.634;7.112;2023-06-22T06:11:21;25.03;;;17.67;;
313;SDS011;143;51.634;7.112;2023-06-22T06:13:47;22.47;;;14.87;;
313;SDS011;143;51.634;7.112;2023-06-22T06:16:12;25.73;;;16.20;;
313;SDS011;143;51.634;7.112;2023-06-22T06:18:38;24.90;;;15.90;;
313;SDS011;143;51.634;7.112;2023-06-22T06:21:04;20.40;;;14.87;;
313;SDS011;143;51.634;7.112;2023-06-22T06:23:30;21.80;;;14.00;;
313;SDS011;143;51.634;7.112;2023-06-22T06:25:55;21.70;;;16.10;;
313;SDS011;143;51.634;7.112;2023-06-22T06:28:21;25.10;;;15.97;;
313;SDS011;143;51.634;7.112;2023-06-22T06:30:47;19.47;;;14.43;;
313;SDS011;143;51.634;7.112;2023-06-22T06:33:13;19.77;;;13.50;;
313;SDS011;143;51.634;7.112;2023-06-22T06:35:38;21.30;;;15.30;;
313;SDS011;143;51.634;7.112;2023-06-22T06:38:04;21.83;;;15.50;;
313;SDS011;143;51.634;7.112;2023-06-22T06:40:30;18.70;;;15.20;;
313;SDS011;143;51.634;7.112;2023-06-22T06:42:55;21.20;;;16.40;;
313;SDS011;143;51.634;7.112;2023-06-22T06:45:21;25.07;;;15.90;;
313;SDS011;143;51.634;7.112;2023-06-22T06:47:49;27.27;;;17.10;;
313;SDS011;143;51.634;7.112;2023-06-22T06:50:15;22.50;;;15.03;;
313;SDS011;143;51.634;7.112;2023-06-22T06:52:41;23.03;;;15.57;;
313;SDS011;143;51.634;7.112;2023-06-22T06:55:07;22.47;;;16.53;;
313;SDS011;143;51.634;7.112;2023-06-22T06:57:36;22.33;;;16.73;;
313;SDS011;143;51.634;7.112;2023-06-22T07:00:03;26.80;;;18.30;;
313;SDS011;143;51.634;7.112;2023-06-22T07:02:41;23.60;;;16.00;;
313;SDS011;143;51.634;7.112;2023-06-22T07:05:09;24.23;;;17.80;;
313;SDS011;143;51.634;7.112;2023-06-22T07:07:36;26.50;;;16.00;;
313;SDS011;143;51.634;7.112;2023-06-22T07:10:02;22.63;;;16.00;;
313;SDS011;143;51.634;7.112;2023-06-22T07:12:28;26.10;;;17.70;;
313;SDS011;143;51.634;7.112;2023-06-22T07:14:53;23.27;;;17.70;;
313;SDS011;143;51.634;7.112;2023-06-22T07:17:25;20.67;;;16.53;;
313;SDS011;143;51.634;7.112;2023-06-22T07:19:51;25.07;;;15.83;;
313;SDS011;143;51.634;7.112;2023-06-22T07:22:16;25.17;;;17.40;;
313;SDS011;143;51.634;7.112;2023-06-22T07:24:42;26.47;;;17.20;;
313;SDS011;143;51.634;7.112;2023-06-22T07:27:08;23.70;;;16.93;;
313;SDS011;143;51.634;7.112;2023-06-22T07:29:36;21.70;;;16.43;;
313;SDS011;143;51.634;7.112;2023-06-22T07:32:02;29.53;;;16.43;;
313;SDS011;143;51.634;7.112;2023-06-22T07:34:30;23.80;;;16.73;;
313;SDS011;143;51.634;7.112;2023-06-22T07:36:55;39.10;;;15.97;;
313;SDS011;143;51.634;7.112;2023-06-22T07:39:21;21.63;;;16.13;;
313;SDS011;143;51.634;7.112;2023-06-22T07:41:51;21.90;;;16.10;;
313;SDS011;143;51.634;7.112;2023-06-22T07:44:17;26.67;;;17.40;;
313;SDS011;143;51.634;7.112;2023-06-22T07:46:43;23.90;;;16.33;;
313;SDS011;143;51.634;7.112;2023-06-22T07:49:08;23.83;;;15.07;;
313;SDS011;143;51.634;7.112;2023-06-22T07:51:34;19.27;;;14.87;;
313;SDS011;143;51.634;7.112;2023-06-22T07:54:00;19.97;;;14.80;;
313;SDS011;143;51.634;7.112;2023-06-22T07:56:25;22.90;;;15.00;;
313;SDS011;143;51.634;7.112;2023-06-22T07:58:51;21.73;;;14.80;;
313;SDS011;143;51.634;7.112;2023-06-22T08:01:18;21.27;;;15.83;;
313;SDS011;143;51.634;7.112;2023-06-22T08:03:46;22.50;;;15.43;;
313;SDS011;143;51.634;7.112;2023-06-22T08:06:13;22.20;;;15.70;;
313;SDS011;143;51.634;7.112;2023-06-22T08:08:39;24.40;;;14.47;;
313;SDS011;143;51.634;7.112;2023-06-22T08:11:05;29.03;;;15.97;;
313;SDS011;143;51.634;7.112;2023-06-22T08:13:31;18.93;;;15.43;;
313;SDS011;143;51.634;7.112;2023-06-22T08:15:57;19.33;;;14.13;;
313;SDS011;143;51.634;7.112;2023-06-22T08:18:22;27.60;;;15.60;;
313;SDS011;143;51.634;7.112;2023-06-22T08:20:48;20.97;;;14.40;;
313;SDS011;143;51.634;7.112;2023-06-22T08:23:14;19.33;;;15.10;;
313;SDS011;143;51.634;7.112;2023-06-22T08:25:40;21.90;;;15.20;;
313;SDS011;143;51.634;7.112;2023-06-22T08:28:06;21.40;;;15.37;;
313;SDS011;143;51.634;7.112;2023-06-22T08:30:32;21.60;;;16.00;;
313;SDS011;143;51.634;7.112;2023-06-22T08:32:57;19.37;;;14.13;;
313;SDS011;143;51.634;7.112;2023-06-22T08:35:23;23.93;;;17.30;;
313;SDS011;143;51.634;7.112;2023-06-22T08:37:49;30.17;;;16.10;;
313;SDS011;143;51.634;7.112;2023-06-22T08:40:17;19.13;;;15.40;;
313;SDS011;143;51.634;7.112;2023-06-22T08:42:44;22.10;;;15.67;;
313;SDS011;143;51.634;7.112;2023-06-22T08:45:11;25.63;;;15.53;;
313;SDS011;143;51.634;7.112;2023-06-22T08:47:37;22.20;;;16.33;;
313;SDS011;143;51.634;7.112;2023-06-22T08:50:04;20.53;;;15.03;;
313;SDS011;143;51.634;7.112;2023-06-22T08:52:30;18.63;;;13.80;;
313;SDS011;143;51.634;7.112;2023-06-22T08:54:56;22.67;;;14.70;;
313;SDS011;143;51.634;7.112;2023-06-22T08:57:23;20.57;;;16.83;;
313;SDS011;143;51.634;7.112;2023-06-22T08:59:49;19.80;;;14.43;;
313;SDS011;143;51.634;7.112;2023-06-22T09:02:17;20.47;;;16.17;;
313;SDS011;143;51.634;7.112;2023-06-22T09:04:43;25.03;;;15.47;;
313;SDS011;143;51.634;7.112;2023-06-22T09:07:08;19.93;;;14.70;;
313;SDS011;143;51.634;7.112;2023-06-22T09:09:34;23.30;;;15.40;;
313;SDS011;143;51.634;7.112;2023-06-22T09:12:00;21.10;;;15.67;;
313;SDS011;143;51.634;7.112;2023-06-22T09:14:25;25.73;;;16.33;;
313;SDS011;143;51.634;7.112;2023-06-22T09:16:51;17.33;;;13.90;;
313;SDS011;143;51.634;7.112;2023-06-22T09:19:17;21.93;;;15.07;;
313;SDS011;143;51.634;7.112;2023-06-22T09:21:42;19.47;;;14.00;;
313;SDS011;143;51.634;7.112;2023-06-22T09:24:08;21.43;;;13.77;;
313;SDS011;143;51.634;7.112;2023-06-22T09:26:34;22.03;;;13.70;;
313;SDS011;143;51.634;7.112;2023-06-22T09:28:59;21.17;;;14.00;;
313;SDS011;143;51.634;7.112;2023-06-22T09:31:25;21.27;;;13.90;;
313;SDS011;143;51.634;7.112;2023-06-22T09:33:51;19.90;;;14.70;;
313;SDS011;143;51.634;7.112;2023-06-22T09:36:18;25.60;;;15.67;;
313;SDS011;143;51.634;7.112;2023-06-22T09:38:44;22.73;;;15.40;;
313;SDS011;143;51.634;7.112;2023-06-22T09:41:09;19.77;;;14.20;;
313;SDS011;143;51.634;7.112;2023-06-22T09:43:35;21.33;;;14.90;;
313;SDS011;143;51.634;7.112;2023-06-22T09:46:01;22.90;;;13.60;;
313;SDS011;143;51.634;7.112;2023-06-22T09:48:27;20.10;;;13.47;;
313;SDS011;143;51.634;7.112;2023-06-22T09:50:54;23.83;;;13.53;;
313;SDS011;143;51.634;7.112;2023-06-22T09:53:20;17.20;;;14.00;;
313;SDS011;143;51.634;7.112;2023-06-22T09:55:46;19.37;;;13.40;;
313;SDS011;143;51.634;7.112;2023-06-22T09:58:12;16.40;;;12.00;;
313;SDS011;143;51.634;7.112;2023-06-22T10:00:37;15.63;;;12.23;;
313;SDS011;143;51.634;7.112;2023-06-22T10:03:03;16.63;;;12.07;;
313;SDS011;143;51.634;7.112;2023-06-22T10:05:29;19.77;;;15.00;;
313;SDS011;143;51.634;7.112;2023-06-22T10:07:54;15.70;;;12.50;;
313;SDS011;143;51.634;7.112;2023-06-22T10:10:20;17.43;;;12.63;;
313;SDS011;143;51.634;7.112;2023-06-22T10:12:47;20.53;;;15.70;;
313;SDS011;143;51.634;7.112;2023-06-22T10:15:19;20.43;;;15.83;;
313;SDS011;143;51.634;7.112;2023-06-22T10:17:46;21.03;;;12.67;;
313;SDS011;143;51.634;7.112;2023-06-22T10:20:12;12.83;;;10.50;;
313;SDS011;143;51.634;7.112;2023-06-22T10:22:38;18.57;;;13.03;;
313;SDS011;143;51.634;7.112;2023-06-22T10:25:09;17.70;;;11.90;;
313;SDS011;143;51.634;7.112;2023-06-22T10:27:35;16.30;;;12.73;;
313;SDS011;143;51.634;7.112;2023-06-22T10:30:01;14.57;;;11.93;;
313;SDS011;143;51.634;7.112;2023-06-22T10:32:27;17.33;;;11.70;;
313;SDS011;143;51.634;7.112;2023-06-22T10:34:55;18.70;;;12.10;;
313;SDS011;143;51.634;7.112;2023-06-22T10:37:21;17.83;;;12.37;;
313;SDS011;143;51.634;7.112;2023-06-22T10:39:47;17.10;;;12.67;;
313;SDS011;143;51.634;7.112;2023-06-22T10:42:14;15.87;;;12.03;;
313;SDS011;143;51.634;7.112;2023-06-22T10:44:39;22.53;;;10.70;;
313;SDS011;143;51.634;7.112;2023-06-22T10:47:06;17.87;;;10.90;;
313;SDS011;143;51.634;7.112;2023-06-22T10:49:32;14.30;;;10.53;;
313;SDS011;143;51.634;7.112;2023-06-22T10:51:57;14.27;;;10.93;;
313;SDS011;143;51.634;7.112;2023-06-22T10:54:23;15.27;;;11.10;;
313;SDS011;143;51.634;7.112;2023-06-22T10:56:49;14.03;;;10.00;;
313;SDS011;143;51.634;7.112;2023-06-22T10:59:15;14.50;;;11.60;;
313;SDS011;143;51.634;7.112;2023-06-22T11:01:41;13.93;;;10.07;;
313;SDS011;143;51.634;7.112;2023-06-22T11:04:07;18.60;;;10.97;;
313;SDS011;143;51.634;7.112;2023-06-22T11:06:33;15.90;;;11.77;;
313;SDS011;143;51.634;7.112;2023-06-22T11:08:58;14.57;;;9.57;;
313;SDS011;143;51.634;7.112;2023-06-22T11:11:25;15.60;;;11.87;;
313;SDS011;143;51.634;7.112;2023-06-22T11:13:52;13.37;;;10.43;;
313;SDS011;143;51.634;7.112;2023-06-22T11:16:18;19.53;;;13.57;;
313;SDS011;143;51.634;7.112;2023-06-22T11:18:43;20.57;;;11.23;;
313;SDS011;143;51.634;7.112;2023-06-22T11:21:09;15.73;;;11.10;;
313;SDS011;143;51.634;7.112;2023-06-22T11:23:35;15.30;;;11.33;;
313;SDS011;143;51.634;7.112;2023-06-22T11:26:00;15.57;;;12.53;;
313;SDS011;143;51.634;7.112;2023-06-22T11:28:27;14.70;;;11.20;;
313;SDS011;143;51.634;7.112;2023-06-22T11:30:52;16.87;;;11.80;;
313;SDS011;143;51.634;7.112;2023-06-22T11:33:18;17.87;;;12.50;;
313;SDS011;143;51.634;7.112;2023-06-22T11:35:44;15.50;;;11.73;;
313;SDS011;143;51.634;7.112;2023-06-22T11:38:09;15.87;;;11.30;;
313;SDS011;143;51.634;7.112;2023-06-22T11:40:35;15.37;;;11.10;;
313;SDS011;143;51.634;7.112;2023-06-22T11:43:01;26.30;;;11.60;;
313;SDS011;143;51.634;7.112;2023-06-22T11:45:27;16.03;;;12.37;;
313;SDS011;143;51.634;7.112;2023-06-22T11:47:53;19.23;;;15.13;;
313;SDS011;143;51.634;7.112;2023-06-22T11:50:19;20.90;;;14.37;;
313;SDS011;143;51.634;7.112;2023-06-22T11:52:44;23.70;;;16.67;;
313;SDS011;143;51.634;7.112;2023-06-22T11:55:10;20.13;;;14.17;;
313;SDS011;143;51.634;7.112;2023-06-22T11:57:36;22.07;;;15.23;;
313;SDS011;143;51.634;7.112;2023-06-22T12:00:03;20.40;;;14.80;;
313;SDS011;143;51.634;7.112;2023-06-22T12:02:41;20.63;;;16.20;;
313;SDS011;143;51.634;7.112;2023-06-22T12:05:07;20.90;;;15.67;;
313;SDS011;143;51.634;7.112;2023-06-22T12:07:33;22.13;;;17.23;;
313;SDS011;143;51.634;7.112;2023-06-22T12:09:59;27.70;;;20.00;;
313;SDS011;143;51.634;7.112;2023-06-22T12:12:24;25.07;;;18.40;;
313;SDS011;143;51.634;7.112;2023-06-22T12:14:50;23.47;;;17.10;;
313;SDS011;143;51.634;7.112;2023-06-22T12:17:16;25.40;;;18.77;;
313;SDS011;143;51.634;7.112;2023-06-22T12:19:41;25.80;;;19.40;;
313;SDS011;143;51.634;7.112;2023-06-22T12:22:07;25.80;;;20.63;;
313;SDS011;143;51.634;7.112;2023-06-22T12:24:32;29.27;;;21.80;;
313;SDS011;143;51.634;7.112;2023-06-22T12:26:58;28.97;;;21.50;;
313;SDS011;143;51.634;7.112;2023-06-22T12:29:24;25.43;;;20.33;;
313;SDS011;143;51.634;7.112;2023-06-22T12:31:49;31.00;;;23.60;;
313;SDS011;143;51.634;7.112;2023-06-22T12:34:15;33.33;;;21.20;;
313;SDS011;143;51.634;7.112;2023-06-22T12:36:41;30.50;;;21.70;;
313;SDS011;143;51.634;7.112;2023-06-22T12:39:06;29.63;;;21.20;;
313;SDS011;143;51.634;7.112;2023-06-22T12:41:32;31.97;;;21.10;;
313;SDS011;143;51.634;7.112;2023-06-22T12:43:58;38.20;;;23.17;;
313;SDS011;143;51.634;7.112;2023-06-22T12:46:23;34.03;;;23.50;;
313;SDS011;143;51.634;7.112;2023-06-22T12:48:49;37.03;;;25.67;;
313;SDS011;143;51.634;7.112;2023-06-22T12:51:21;41.07;;;24.23;;
313;SDS011;143;51.634;7.112;2023-06-22T12:53:47;35.70;;;21.90;;
313;SDS011;143;51.634;7.112;2023-06-22T12:56:13;40.50;;;24.97;;
313;SDS011;143;51.634;7.112;2023-06-22T12:58:39;25.70;;;20.10;;
313;SDS011;143;51.634;7.112;2023-06-22T13:01:05;32.00;;;23.43;;
313;SDS011;143;51.634;7.112;2023-06-22T13:03:30;29.60;;;21.50;;
313;SDS011;143;51.634;7.112;2023-06-22T13:05:56;32.50;;;22.80;;
313;SDS011;143;51.634;7.112;2023-06-22T13:08:22;30.77;;;23.57;;
313;SDS011;143;51.634;7.112;2023-06-22T13:10:47;29.43;;;23.77;;
313;SDS011;143;51.634;7.112;2023-06-22T13:13:13;30.73;;;22.00;;
313;SDS011;143;51.634;7.112;2023-06-22T13:15:38;28.53;;;22.50;;
313;SDS011;143;51.634;7.112;2023-06-22T13:18:04;35.80;;;24.50;;
313;SDS011;143;51.634;7.112;2023-06-22T13:20:30;33.53;;;24.20;;
313;SDS011;143;51.634;7.112;2023-06-22T13:22:56;32.33;;;24.40;;
313;SDS011;143;51.634;7.112;2023-06-22T13:25:22;29.70;;;22.40;;
313;SDS011;143;51.634;7.112;2023-06-22T13:27:51;32.77;;;23.27;;
313;SDS011;143;51.634;7.112;2023-06-22T13:30:17;30.10;;;22.60;;
313;SDS011;143;51.634;7.112;2023-06-22T13:32:43;31.03;;;23.33;;
313;SDS011;143;51.634;7.112;2023-06-22T13:35:11;28.00;;;22.60;;
313;SDS011;143;51.634;7.112;2023-06-22T13:37:37;34.97;;;24.07;;
313;SDS011;143;51.634;7.112;2023-06-22T13:40:04;35.67;;;25.00;;
313;SDS011;143;51.634;7.112;2023-06-22T13:42:33;31.90;;;22.07;;
313;SDS011;143;51.634;7.112;2023-06-22T13:44:58;33.93;;;26.23;;
313;SDS011;143;51.634;7.112;2023-06-22T13:47:24;35.30;;;24.47;;
313;SDS011;143;51.634;7.112;2023-06-22T13:49:50;39.00;;;25.20;;
313;SDS011;143;51.634;7.112;2023-06-22T13:52:15;36.27;;;25.23;;
313;SDS011;143;51.634;7.112;2023-06-22T13:54:41;36.83;;;25.97;;
313;SDS011;143;51.634;7.112;2023-06-22T13:57:07;36.13;;;26.23;;
313;SDS011;143;51.634;7.112;2023-06-22T13:59:32;37.40;;;26.67;;
313;SDS011;143;51.634;7.112;2023-06-22T14:01:58;32.20;;;25.13;;
313;SDS011;143;51.634;7.112;2023-06-22T14:04:24;34.50;;;27.10;;
313;SDS011;143;51.634;7.112;2023-06-22T14:06:49;39.97;;;25.47;;
313;SDS011;143;51.634;7.112;2023-06-22T14:09:15;35.10;;;26.50;;
313;SDS011;143;51.634;7.112;2023-06-22T14:11:41;34.00;;;25.93;;
313;SDS011;143;51.634;7.112;2023-06-22T14:14:06;32.27;;;25.40;;
313;SDS011;143;51.634;7.112;2023-06-22T14:16:32;34.50;;;24.90;;
313;SDS011;143;51.634;7.112;2023-06-22T14:18:58;32.80;;;25.07;;
313;SDS011;143;51.634;7.112;2023-06-22T14:21:24;34.27;;;25.30;;
313;SDS011;143;51.634;7.112;2023-06-22T14:23:51;28.60;;;22.73;;
313;SDS011;143;51.634;7.112;2023-06-22T14:26:16;30.50;;;23.13;;
313;SDS011;143;51.634;7.112;2023-06-22T14:28:45;31.60;;;24.27;;
313;SDS011;143;51.634;7.112;2023-06-22T14:31:16;33.17;;;24.70;;
313;SDS011;143;51.634;7.112;2023-06-22T14:33:44;31.63;;;24.10;;
313;SDS011;143;51.634;7.112;2023-06-22T14:36:12;33.00;;;22.30;;
313;SDS011;143;51.634;7.112;2023-06-22T14:38:38;31.93;;;23.80;;
313;SDS011;143;51.634;7.112;2023-06-22T14:41:04;27.57;;;22.23;;
313;SDS011;143;51.634;7.112;2023-06-22T14:43:30;33.37;;;23.17;;
313;SDS011;143;51.634;7.112;2023-06-22T14:45:55;34.73;;;25.23;;
313;SDS011;143;51.634;7.112;2023-06-22T14:48:21;34.23;;;25.00;;
313;SDS011;143;51.634;7.112;2023-06-22T14:50:47;27.30;;;21.90;;
313;SDS011;143;51.634;7.112;2023-06-22T14:53:13;38.13;;;26.17;;
313;SDS011;143;51.634;7.112;2023-06-22T14:55:39;32.40;;;24.23;;
313;SDS011;143;51.634;7.112;2023-06-22T14:58:05;31.10;;;21.07;;
313;SDS011;143;51.634;7.112;2023-06-22T15:00:31;32.90;;;25.33;;
313;SDS011;143;51.634;7.112;2023-06-22T15:02:56;30.67;;;22.37;;
313;SDS011;143;51.634;7.112;2023-06-22T15:05:24;31.67;;;24.30;;
313;SDS011;143;51.634;7.112;2023-06-22T15:07:49;30.80;;;22.30;;
313;SDS011;143;51.634;7.112;2023-06-22T15:10:15;30.50;;;22.43;;
313;SDS011;143;51.634;7.112;2023-06-22T15:12:41;31.97;;;22.80;;
313;SDS011;143;51.634;7.112;2023-06-22T15:15:07;26.40;;;21.37;;
313;SDS011;143;51.634;7.112;2023-06-22T15:17:33;26.07;;;20.07;;
313;SDS011;143;51.634;7.112;2023-06-22T15:19:58;31.63;;;21.17;;
313;SDS011;143;51.634;7.112;2023-06-22T15:22:24;36.80;;;22.40;;